Time;durP1;ratioP1;P1;durP2;ratioP2;P2;SDS_P1;SDS_P2;PMS_P1;PMS_P2;Temp;Humidity;BMP_temperature;BMP_pressure;BME280_temperature;BME280_humidity;BME280_pressure;Samples;Min_cycle;Max_cycle;Signal;HPM_P1;HPM_P2
2021/05/12 00:02:18;;;;;;;0.80;0.70;;;15.60;63.30;;;;;;6098669;29;20032;-81
2021/05/12 00:05:21;;;;;;;3.95;0.75;;;15.60;63.30;;;;;;6083819;29;20028;-80
2021/05/12 00:08:23;;;;;;;0.45;0.45;;;15.60;63.30;;;;;;6094972;29;20039;-80
2021/05/12 00:11:25;;;;;;;1.35;0.80;;;15.50;63.30;;;;;;6089726;29;20145;-81
2021/05/12 00:14:30;;;;;;;3.85;0.95;;;15.50;64.40;;;;;;6100906;29;20040;-80
2021/05/12 00:17:33;;;;;;;1.58;0.70;;;15.50;63.70;;;;;;6089282;29;20028;-81
2021/05/12 00:20:35;;;;;;;3.03;0.90;;;15.50;63.60;;;;;;6094481;29;20028;-80
2021/05/12 00:23:46;;;;;;;1.38;0.90;;;15.50;63.50;;;;;;6099042;29;20034;-81
2021/05/12 00:26:48;;;;;;;0.80;0.65;;;15.40;63.50;;;;;;6093978;29;20104;-81
2021/05/12 00:29:49;;;;;;;2.30;0.90;;;15.40;63.60;;;;;;6093212;29;20024;-80
2021/05/12 00:32:50;;;;;;;1.58;1.00;;;15.40;63.60;;;;;;6106653;29;20079;-80
2021/05/12 00:35:51;;;;;;;2.20;0.80;;;15.30;63.60;;;;;;6102680;29;20193;-80
2021/05/12 00:38:53;;;;;;;1.42;0.70;;;15.20;63.80;;;;;;6107078;29;20032;-81
2021/05/12 00:41:54;;;;;;;4.13;0.90;;;15.20;64.80;;;;;;6103986;29;20036;-80
2021/05/12 00:44:55;;;;;;;0.90;0.52;;;15.20;64.00;;;;;;6107435;29;20391;-81
2021/05/12 00:47:56;;;;;;;8.15;0.93;;;15.20;64.10;;;;;;6105665;29;20099;-81
2021/05/12 00:50:57;;;;;;;5.57;0.77;;;15.20;64.20;;;;;;6092154;29;20111;-81
2021/05/12 00:53:58;;;;;;;1.25;0.88;;;15.10;64.20;;;;;;6097560;29;20039;-81
2021/05/12 00:57:00;;;;;;;0.90;0.73;;;15.20;64.40;;;;;;6076069;29;20055;-81
2021/05/12 01:00:03;;;;;;;3.58;0.90;;;15.10;64.40;;;;;;6105025;29;20381;-80
2021/05/12 01:03:05;;;;;;;0.77;0.60;;;15.20;64.50;;;;;;6103689;29;20375;-81
2021/05/12 01:06:28;;;;;;;1.00;0.73;;;15.20;64.40;;;;;;6094357;29;20036;-80
2021/05/12 01:09:29;;;;;;;0.98;0.70;;;15.20;64.30;;;;;;6098232;29;20114;-80
2021/05/12 01:12:30;;;;;;;1.52;0.68;;;15.20;64.20;;;;;;6109642;29;20028;-79
2021/05/12 01:15:32;;;;;;;1.88;0.70;;;15.20;64.00;;;;;;6104666;29;20040;-81
2021/05/12 01:18:33;;;;;;;0.93;0.68;;;15.10;64.00;;;;;;6097457;29;20036;-80
2021/05/12 01:21:34;;;;;;;1.30;0.70;;;15.10;63.90;;;;;;6104324;29;20128;-82
2021/05/12 01:24:35;;;;;;;2.03;0.80;;;15.00;63.90;;;;;;6104781;29;20025;-80
2021/05/12 01:27:38;;;;;;;2.92;0.70;;;15.00;64.00;;;;;;6099512;29;20076;-80
2021/05/12 01:30:40;;;;;;;0.50;0.40;;;14.90;64.10;;;;;;6099129;29;20030;-81
2021/05/12 01:33:41;;;;;;;2.40;0.82;;;14.90;64.20;;;;;;6102827;29;20028;-81
2021/05/12 01:36:43;;;;;;;1.85;0.90;;;14.80;64.30;;;;;;6101095;29;20045;-81
2021/05/12 01:39:45;;;;;;;2.67;0.90;;;14.80;64.40;;;;;;6072470;29;20043;-80
2021/05/12 01:42:46;;;;;;;1.17;0.65;;;14.70;64.40;;;;;;6100868;29;20031;-80
2021/05/12 01:45:48;;;;;;;1.38;0.70;;;14.70;64.40;;;;;;6091446;29;20043;-80
2021/05/12 01:48:50;;;;;;;0.55;0.50;;;14.70;64.50;;;;;;6100620;29;20035;-81
2021/05/12 01:51:51;;;;;;;1.20;0.70;;;14.70;64.60;;;;;;6106627;29;20036;-81
2021/05/12 01:54:52;;;;;;;1.13;0.50;;;14.70;64.70;;;;;;6091731;29;20036;-81
2021/05/12 01:57:53;;;;;;;3.90;0.70;;;14.60;64.70;;;;;;6085644;29;20040;-81
2021/05/12 02:00:57;;;;;;;1.40;0.68;;;14.60;64.70;;;;;;6102034;29;20033;-80
2021/05/12 02:04:03;;;;;;;0.57;0.40;;;14.50;64.70;;;;;;6100172;29;20475;-81
2021/05/12 02:07:04;;;;;;;0.73;0.57;;;14.50;64.90;;;;;;6102810;29;20080;-81
2021/05/12 02:10:05;;;;;;;3.85;0.60;;;14.50;64.70;;;;;;6099374;29;20029;-81
2021/05/12 02:13:07;;;;;;;4.68;0.85;;;14.40;64.60;;;;;;6089724;29;20122;-80
2021/05/12 02:16:08;;;;;;;1.48;0.60;;;14.40;64.70;;;;;;6083162;29;20119;-80
2021/05/12 02:19:09;;;;;;;1.50;0.70;;;14.40;64.80;;;;;;6103662;29;20039;-81
2021/05/12 02:22:10;;;;;;;3.63;0.60;;;14.40;64.80;;;;;;6101886;29;20448;-80
2021/05/12 02:25:11;;;;;;;1.52;0.50;;;14.40;64.60;;;;;;6090791;29;20379;-81
2021/05/12 02:28:13;;;;;;;0.68;0.45;;;14.30;64.30;;;;;;6102072;29;20091;-81
2021/05/12 02:31:14;;;;;;;1.45;0.60;;;14.30;64.00;;;;;;6075005;29;20051;-81
2021/05/12 02:34:16;;;;;;;2.28;0.50;;;14.30;63.80;;;;;;6091811;29;20534;-80
2021/05/12 02:37:17;;;;;;;1.00;0.60;;;14.30;63.60;;;;;;6082240;29;20040;-80
2021/05/12 02:40:19;;;;;;;0.75;0.43;;;14.30;63.40;;;;;;6102818;29;20043;-80
2021/05/12 02:43:20;;;;;;;0.80;0.43;;;14.30;63.30;;;;;;6100382;29;20028;-80
2021/05/12 02:46:21;;;;;;;3.72;1.27;;;14.30;63.10;;;;;;6087265;29;20111;-80
2021/05/12 02:49:22;;;;;;;1.20;0.70;;;14.30;62.90;;;;;;6103347;29;20470;-79
2021/05/12 02:52:24;;;;;;;2.38;0.90;;;14.20;62.60;;;;;;6091861;29;20036;-81
2021/05/12 02:55:35;;;;;;;1.98;0.70;;;14.20;62.70;;;;;;6104857;29;20368;-83
2021/05/12 02:58:36;;;;;;;1.25;0.60;;;14.20;62.80;;;;;;6067684;29;20037;-80
2021/05/12 03:01:38;;;;;;;0.43;0.40;;;14.10;62.70;;;;;;6104038;29;20028;-80
2021/05/12 03:04:39;;;;;;;1.85;0.80;;;14.10;62.50;;;;;;6100922;29;20468;-80
2021/05/12 03:07:40;;;;;;;0.63;0.50;;;14.10;62.90;;;;;;6075262;29;20024;-80
2021/05/12 03:10:41;;;;;;;0.40;0.40;;;14.10;61.40;;;;;;6103926;29;20048;-80
2021/05/12 03:13:42;;;;;;;7.75;0.50;;;14.00;61.30;;;;;;6104445;29;20028;-81
2021/05/12 03:16:43;;;;;;;0.75;0.60;;;14.00;61.30;;;;;;6088107;29;20063;-81
2021/05/12 03:19:44;;;;;;;0.77;0.40;;;14.00;61.50;;;;;;6090018;29;20032;-80
2021/05/12 03:22:45;;;;;;;1.48;0.65;;;13.90;61.50;;;;;;6085026;29;20060;-80
2021/05/12 03:25:46;;;;;;;0.82;0.50;;;13.90;61.80;;;;;;6087249;29;20059;-81
2021/05/12 03:28:47;;;;;;;1.90;0.70;;;13.80;62.00;;;;;;6088011;29;20044;-80
2021/05/12 03:31:49;;;;;;;1.15;0.52;;;13.80;62.40;;;;;;6071703;29;20033;-81
2021/05/12 03:34:51;;;;;;;2.15;0.82;;;13.80;62.70;;;;;;6097128;29;20045;-81
2021/05/12 03:37:52;;;;;;;2.55;0.57;;;13.80;62.80;;;;;;6073484;29;20029;-81
2021/05/12 03:40:53;;;;;;;1.00;0.70;;;13.70;63.00;;;;;;6066072;29;20048;-81
2021/05/12 03:43:55;;;;;;;0.47;0.47;;;13.70;62.80;;;;;;6081747;29;20036;-81
2021/05/12 03:46:56;;;;;;;3.03;1.00;;;13.70;62.80;;;;;;6093770;29;20111;-80
2021/05/12 03:49:57;;;;;;;0.40;0.40;;;13.60;63.00;;;;;;6095633;29;20031;-80
2021/05/12 03:52:58;;;;;;;0.55;0.50;;;13.60;63.10;;;;;;6080052;29;20073;-80
2021/05/12 03:56:00;;;;;;;0.63;0.47;;;13.60;63.20;;;;;;6090391;29;20100;-81
2021/05/12 03:59:01;;;;;;;1.25;0.73;;;13.60;63.40;;;;;;6098361;29;20039;-80
2021/05/12 04:02:02;;;;;;;0.60;0.50;;;13.50;63.50;;;;;;6097165;29;20132;-80
2021/05/12 04:05:05;;;;;;;0.50;0.40;;;13.50;63.40;;;;;;6080085;29;20040;-80
2021/05/12 04:08:07;;;;;;;7.68;0.63;;;13.50;63.40;;;;;;6079678;29;20128;-80
2021/05/12 04:11:10;;;;;;;1.08;0.68;;;13.50;63.50;;;;;;6084956;29;20024;-80
2021/05/12 04:14:11;;;;;;;2.30;1.00;;;13.50;63.70;;;;;;6086264;29;20489;-80
2021/05/12 04:17:13;;;;;;;2.03;1.05;;;13.40;63.70;;;;;;6078347;29;20052;-80
2021/05/12 04:20:16;;;;;;;3.15;0.80;;;13.40;63.80;;;;;;6094675;29;20111;-80
2021/05/12 04:23:17;;;;;;;2.63;0.90;;;13.40;64.10;;;;;;6098652;29;20048;-80
2021/05/12 04:26:18;;;;;;;1.73;0.77;;;13.30;64.20;;;;;;6086231;29;20119;-80
2021/05/12 04:29:20;;;;;;;1.27;1.05;;;13.30;64.40;;;;;;6068511;29;20076;-81
2021/05/12 04:32:21;;;;;;;0.95;0.77;;;13.30;64.50;;;;;;6085126;29;20444;-82
2021/05/12 04:35:22;;;;;;;1.15;0.70;;;13.20;64.60;;;;;;6072011;29;20091;-80
2021/05/12 04:38:24;;;;;;;3.50;0.90;;;13.20;64.70;;;;;;6085508;29;20041;-81
2021/05/12 04:41:25;;;;;;;3.50;0.95;;;13.20;64.90;;;;;;6064997;29;20476;-81
2021/05/12 04:44:27;;;;;;;1.48;1.00;;;13.30;65.00;;;;;;6080895;29;20036;-81
2021/05/12 04:47:28;;;;;;;2.70;0.82;;;13.30;65.10;;;;;;6086346;29;20085;-81
2021/05/12 04:50:31;;;;;;;0.90;0.77;;;13.40;65.10;;;;;;6083119;29;20039;-81
2021/05/12 04:53:33;;;;;;;0.70;0.60;;;13.40;65.00;;;;;;6084704;29;20116;-81
2021/05/12 04:56:34;;;;;;;1.95;0.90;;;13.40;64.80;;;;;;6075739;29;20088;-81
2021/05/12 04:59:36;;;;;;;1.02;0.85;;;13.40;64.60;;;;;;6095777;29;20548;-80
2021/05/12 05:02:40;;;;;;;0.80;0.80;;;13.50;64.40;;;;;;6081189;29;20033;-81
2021/05/12 05:05:42;;;;;;;3.90;1.63;;;13.50;64.20;;;;;;6083493;29;20031;-81
2021/05/12 05:08:43;;;;;;;2.58;1.48;;;13.50;64.10;;;;;;6097914;29;20036;-80
2021/05/12 05:11:46;;;;;;;2.28;1.30;;;13.50;64.20;;;;;;6078509;29;20437;-81
2021/05/12 05:14:47;;;;;;;3.53;1.80;;;13.50;64.20;;;;;;6082080;29;20111;-80
2021/05/12 05:17:51;;;;;;;4.75;1.92;;;13.40;64.20;;;;;;6090078;29;20047;-79
2021/05/12 05:20:56;;;;;;;2.45;1.48;;;13.40;64.40;;;;;;6096674;29;20037;-80
2021/05/12 05:23:58;;;;;;;4.28;1.98;;;13.40;64.40;;;;;;6083360;29;20088;-82
2021/05/12 05:26:59;;;;;;;3.05;1.60;;;13.50;64.30;;;;;;6082332;29;20071;-83
2021/05/12 05:30:00;;;;;;;7.90;2.13;;;13.50;64.60;;;;;;6084344;29;20050;-82
2021/05/12 05:33:20;;;;;;;7.65;2.75;;;13.60;64.30;;;;;;6085490;29;20048;-83
2021/05/12 05:36:40;;;;;;;5.72;1.80;;;13.60;64.30;;;;;;6082030;29;20053;-81
2021/05/12 05:40:00;;;;;;;2.75;1.75;;;13.70;64.20;;;;;;6080912;29;20393;-80
2021/05/12 05:44:16;;;;;;;;;;;;;;;;;;;;;
2021/05/12 05:47:51;;;;;;;3.45;1.77;;;13.70;63.70;;;;;;6082024;29;20041;-83
2021/05/12 05:51:55;;;;;;;2.78;1.83;;;13.60;63.70;;;;;;6092327;29;20032;-83
2021/05/12 05:56:01;;;;;;;11.27;2.88;;;13.60;64.10;;;;;;6077748;29;20037;-81
2021/05/12 05:59:38;;;;;;;6.28;2.63;;;13.70;64.10;;;;;;6079624;29;20040;-82
2021/05/12 06:03:12;;;;;;;6.68;2.60;;;13.80;63.50;;;;;;6066677;29;20072;-80
2021/05/12 06:06:31;;;;;;;4.97;2.50;;;13.80;63.40;;;;;;6069679;29;20131;-80
2021/05/12 06:09:54;;;;;;;7.07;2.95;;;13.80;63.30;;;;;;6090177;29;20046;-81
2021/05/12 06:13:31;;;;;;;;;;;13.80;63.40;;;;;;6072703;29;20476;-79
2021/05/12 06:16:54;;;;;;;10.67;2.67;;;14.00;63.20;;;;;;6052191;29;19919;-80
2021/05/12 06:20:17;;;;;;;11.40;2.83;;;14.10;63.00;;;;;;6019624;29;20462;-79
2021/05/12 06:23:37;;;;;;;4.07;2.35;;;14.10;63.00;;;;;;6015869;29;20103;-81
2021/05/12 06:27:10;;;;;;;7.57;1.63;;;14.30;62.90;;;;;;6017037;29;20034;-80
2021/05/12 06:30:30;;;;;;;1.70;1.00;;;14.40;62.70;;;;;;5991733;29;20037;-80
2021/05/12 06:33:49;;;;;;;4.97;1.98;;;14.50;61.90;;;;;;6025828;29;20087;-83
2021/05/12 06:37:10;;;;;;;2.60;1.08;;;14.50;60.80;;;;;;6011368;29;20429;-81
2021/05/12 06:40:30;;;;;;;2.17;1.38;;;14.50;60.60;;;;;;6002133;29;20465;-82
2021/05/12 06:43:31;;;;;;;2.85;1.30;;;14.70;60.50;;;;;;5996388;29;20036;-82
2021/05/12 06:46:33;;;;;;;6.28;1.40;;;14.80;60.10;;;;;;6021980;29;20097;-81
2021/05/12 06:49:35;;;;;;;12.50;1.58;;;14.90;59.60;;;;;;6081029;29;20028;-81
2021/05/12 06:52:36;;;;;;;3.78;1.50;;;14.90;59.30;;;;;;6072677;29;20029;-80
2021/05/12 06:55:37;;;;;;;2.42;1.48;;;15.00;59.00;;;;;;6068892;29;20024;-80
2021/05/12 06:58:41;;;;;;;2.15;1.52;;;15.00;58.90;;;;;;6070476;29;20032;-80
2021/05/12 07:02:09;;;;;;;3.90;1.77;;;15.10;58.80;;;;;;6081118;29;20353;-82
2021/05/12 07:05:20;;;;;;;3.03;1.67;;;15.20;58.80;;;;;;6068053;29;20037;-79
2021/05/12 07:08:53;;;;;;;2.10;1.33;;;15.20;58.50;;;;;;6072467;29;20129;-80
2021/05/12 07:11:56;;;;;;;1.67;1.05;;;15.30;58.60;;;;;;6088536;29;20037;-80
2021/05/12 07:14:57;;;;;;;2.20;1.08;;;15.40;57.90;;;;;;6085526;29;20413;-79
2021/05/12 07:17:58;;;;;;;3.97;1.30;;;15.40;58.10;;;;;;6081352;29;20048;-78
2021/05/12 07:20:59;;;;;;;2.60;1.58;;;15.50;58.10;;;;;;6075902;29;20089;-78
2021/05/12 07:24:01;;;;;;;8.30;2.20;;;15.60;58.10;;;;;;6071350;29;20116;-79
2021/05/12 07:27:02;;;;;;;31.85;2.78;;;15.70;58.10;;;;;;6087956;29;20024;-78
2021/05/12 07:30:05;;;;;;;2.78;1.20;;;15.80;57.70;;;;;;6074312;29;20413;-78
2021/05/12 07:33:06;;;;;;;1.15;0.90;;;16.00;57.30;;;;;;6056225;29;20033;-79
2021/05/12 07:36:07;;;;;;;2.53;1.30;;;16.10;57.30;;;;;;6103700;29;20056;-79
2021/05/12 07:39:09;;;;;;;2.70;1.17;;;16.20;57.00;;;;;;6096515;29;20045;-80
2021/05/12 07:42:12;;;;;;;2.78;1.38;;;16.40;56.80;;;;;;6095663;29;20114;-79
2021/05/12 07:45:14;;;;;;;4.57;1.58;;;16.50;56.10;;;;;;6076875;29;20036;-79
2021/05/12 07:48:16;;;;;;;2.45;1.23;;;16.40;55.30;;;;;;6111135;29;20025;-79
2021/05/12 07:51:17;;;;;;;2.00;1.17;;;16.40;55.60;;;;;;6090323;29;20333;-80
2021/05/12 07:54:18;;;;;;;4.85;1.42;;;16.50;55.80;;;;;;6084058;29;20037;-80
2021/05/12 07:57:19;;;;;;;1.50;1.10;;;16.60;55.80;;;;;;6084244;29;20037;-78
2021/05/12 08:00:22;;;;;;;7.35;1.25;;;16.70;56.10;;;;;;6080388;29;20489;-79
2021/05/12 08:03:23;;;;;;;2.30;1.30;;;16.70;55.00;;;;;;6067747;29;20036;-79
2021/05/12 08:06:24;;;;;;;2.47;1.27;;;16.80;55.00;;;;;;6084141;29;20131;-79
2021/05/12 08:09:26;;;;;;;2.83;1.40;;;16.80;54.40;;;;;;6081205;29;20483;-79
2021/05/12 08:12:30;;;;;;;3.70;1.27;;;16.90;54.50;;;;;;6096305;29;20040;-80
2021/05/12 08:15:31;;;;;;;5.30;1.48;;;17.00;54.60;;;;;;6085205;29;20032;-80
2021/05/12 08:18:32;;;;;;;2.35;1.27;;;17.10;54.20;;;;;;6072680;29;20036;-78
2021/05/12 08:21:37;;;;;;;2.78;1.52;;;17.30;54.20;;;;;;6086095;29;20048;-79
2021/05/12 08:24:38;;;;;;;4.80;1.58;;;17.40;54.00;;;;;;6081061;29;20051;-79
2021/05/12 08:27:41;;;;;;;1.42;1.00;;;17.50;53.70;;;;;;6065606;29;20029;-77
2021/05/12 08:30:48;;;;;;;1.80;1.30;;;17.70;53.50;;;;;;6058916;29;20037;-77
2021/05/12 08:33:49;;;;;;;7.18;1.40;;;17.80;53.40;;;;;;6080255;29;20032;-77
2021/05/12 08:36:50;;;;;;;1.33;0.90;;;17.90;53.10;;;;;;6097050;29;20046;-78
2021/05/12 08:39:51;;;;;;;4.20;1.83;;;18.00;52.80;;;;;;6089481;29;20119;-76
2021/05/12 08:42:54;;;;;;;1.50;1.00;;;18.10;52.80;;;;;;6102019;29;20059;-77
2021/05/12 08:45:56;;;;;;;7.85;1.85;;;18.20;52.20;;;;;;6103937;29;20087;-76
2021/05/12 08:48:59;;;;;;;1.95;0.70;;;18.30;51.90;;;;;;6092776;29;20039;-77
2021/05/12 08:52:01;;;;;;;1.92;1.20;;;18.50;51.90;;;;;;6096084;29;20099;-77
2021/05/12 08:55:07;;;;;;;1.75;1.10;;;18.70;51.50;;;;;;6105178;29;20028;-77
2021/05/12 08:58:09;;;;;;;3.22;1.02;;;18.90;50.80;;;;;;6092612;29;20055;-76
2021/05/12 09:01:10;;;;;;;1.20;0.73;;;19.00;50.30;;;;;;6103327;29;20024;-78
2021/05/12 09:04:12;;;;;;;6.10;2.28;;;19.10;49.80;;;;;;6107053;29;20102;-77
2021/05/12 09:07:13;;;;;;;5.75;1.83;;;19.20;48.80;;;;;;6090277;29;20028;-77
2021/05/12 09:10:15;;;;;;;1.27;0.70;;;19.20;48.50;;;;;;6091115;29;20066;-77
2021/05/12 09:13:37;;;;;;;4.65;1.45;;;19.30;48.70;;;;;;6106937;29;20052;-77
2021/05/12 09:16:44;;;;;;;2.45;0.80;;;19.40;48.50;;;;;;6105574;29;20034;-77
2021/05/12 09:19:48;;;;;;;1.45;0.90;;;19.50;48.40;;;;;;6108144;29;20028;-79
2021/05/12 09:23:05;;;;;;;4.75;1.13;;;19.60;48.30;;;;;;6120855;29;20031;-77
2021/05/12 09:26:14;;;;;;;7.60;4.18;;;19.70;48.30;;;;;;6103892;29;20020;-78
2021/05/12 09:29:42;;;;;;;2.60;0.90;;;19.90;48.10;;;;;;6115822;29;20028;-78
2021/05/12 09:32:45;;;;;;;1.30;0.60;;;19.90;47.30;;;;;;6104658;29;20260;-77
2021/05/12 09:35:46;;;;;;;0.93;0.80;;;20.00;47.10;;;;;;6081346;29;20111;-77
2021/05/12 09:38:52;;;;;;;2.35;0.90;;;20.00;47.10;;;;;;6103053;29;20353;-77
2021/05/12 09:41:53;;;;;;;1.52;0.77;;;20.10;46.80;;;;;;6094629;29;20115;-78
2021/05/12 09:45:19;;;;;;;1.52;0.77;;;20.10;46.50;;;;;;6102735;29;20043;-78
2021/05/12 09:48:20;;;;;;;1.77;0.95;;;20.10;46.20;;;;;;6082736;29;20030;-76
2021/05/12 09:51:21;;;;;;;2.92;0.80;;;20.10;46.20;;;;;;6101735;29;20359;-76
2021/05/12 09:54:25;;;;;;;3.33;0.73;;;20.20;45.90;;;;;;6084964;29;20062;-76
2021/05/12 09:57:26;;;;;;;0.80;0.30;;;20.20;45.30;;;;;;6108308;29;20415;-76
2021/05/12 10:00:31;;;;;;;0.63;0.50;;;20.20;45.50;;;;;;6096284;29;20033;-78
2021/05/12 10:03:32;;;;;;;1.02;0.63;;;20.30;45.40;;;;;;6100643;29;20036;-77
2021/05/12 10:06:33;;;;;;;2.53;0.47;;;20.30;44.80;;;;;;6117499;29;20062;-78
2021/05/12 10:09:34;;;;;;;1.60;0.63;;;20.30;44.40;;;;;;6104291;29;20032;-77
2021/05/12 10:12:35;;;;;;;1.27;0.65;;;20.20;43.90;;;;;;6120056;29;20100;-77
2021/05/12 10:15:37;;;;;;;1.55;0.60;;;20.20;43.70;;;;;;6082691;29;20032;-79
2021/05/12 10:18:38;;;;;;;3.40;0.60;;;20.20;43.10;;;;;;6102929;29;20440;-78
2021/05/12 10:21:39;;;;;;;1.55;1.00;;;20.30;43.20;;;;;;6089073;29;20056;-79
2021/05/12 10:24:46;;;;;;;4.25;0.60;;;20.40;43.00;;;;;;6086271;29;20024;-77
2021/05/12 10:27:49;;;;;;;1.75;0.65;;;20.40;42.60;;;;;;6085074;29;20035;-78
2021/05/12 10:30:52;;;;;;;3.90;0.90;;;20.40;42.30;;;;;;6099669;29;20036;-77
2021/05/12 10:33:57;;;;;;;1.45;0.50;;;20.40;42.30;;;;;;6094801;29;20044;-78
2021/05/12 10:37:22;;;;;;;1.27;0.77;;;20.50;42.50;;;;;;6089462;29;20024;-77
2021/05/12 10:40:30;;;;;;;2.85;0.70;;;20.60;42.70;;;;;;6105133;29;20043;-78
2021/05/12 10:43:44;;;;;;;1.13;0.73;;;20.70;42.10;;;;;;6100006;29;20412;-77
2021/05/12 10:47:05;;;;;;;2.78;0.70;;;20.80;42.20;;;;;;6102632;29;20242;-78
2021/05/12 10:50:07;;;;;;;2.90;1.08;;;20.90;42.20;;;;;;6101437;29;20083;-78
2021/05/12 10:53:19;;;;;;;2.42;0.80;;;21.00;41.70;;;;;;6093823;29;20032;-77
2021/05/12 10:56:34;;;;;;;0.70;0.65;;;21.70;40.00;;;;;;6103560;29;20123;-78
2021/05/12 10:59:41;;;;;;;2.83;0.52;;;23.00;38.10;;;;;;6089079;29;20024;-79
2021/05/12 11:03:01;;;;;;;3.10;0.77;;;24.20;36.30;;;;;;6091643;29;20039;-78
2021/05/12 11:06:02;;;;;;;2.97;0.73;;;25.30;34.00;;;;;;6098122;29;20020;-79
2021/05/12 11:09:15;;;;;;;9.95;5.60;;;26.10;32.80;;;;;;6103556;29;20032;-78
2021/05/12 11:12:19;;;;;;;0.95;0.65;;;26.90;32.00;;;;;;6101414;29;20060;-79
2021/05/12 11:15:20;;;;;;;2.58;1.02;;;27.50;31.10;;;;;;6091820;29;20068;-79
2021/05/12 11:18:40;;;;;;;3.42;0.80;;;27.90;30.50;;;;;;6100289;29;20032;-79
2021/05/12 11:21:43;;;;;;;0.70;0.50;;;28.40;29.50;;;;;;6099544;29;20337;-77
2021/05/12 11:24:53;;;;;;;0.80;0.65;;;28.70;28.10;;;;;;6076279;29;20028;-77
2021/05/12 11:34:23;;;;;;;3.30;0.90;;;29.10;28.20;;;;;;6105908;29;20044;-75
2021/05/12 11:37:26;;;;;;;4.25;0.55;;;29.00;28.30;;;;;;6115205;29;20023;-76
2021/05/12 11:40:31;;;;;;;2.03;0.65;;;28.90;28.50;;;;;;6103229;29;20020;-76
2021/05/12 11:43:32;;;;;;;2.42;0.70;;;28.70;28.20;;;;;;6098280;29;20039;-76
2021/05/12 11:46:35;;;;;;;1.63;0.88;;;28.40;28.50;;;;;;6123354;29;20035;-78
2021/05/12 11:49:39;;;;;;;5.68;0.68;;;28.30;28.50;;;;;;6095678;29;20029;-78
2021/05/12 11:52:45;;;;;;;2.17;0.80;;;28.40;28.70;;;;;;6105422;29;20059;-78
2021/05/12 11:55:57;;;;;;;0.85;0.68;;;28.60;28.60;;;;;;6102385;29;20046;-78
2021/05/12 11:59:04;;;;;;;4.07;0.70;;;28.80;28.40;;;;;;6113160;29;20043;-78
2021/05/12 12:02:12;;;;;;;0.95;0.68;;;28.80;28.30;;;;;;6110529;29;20403;-77
2021/05/12 12:05:15;;;;;;;6.75;4.13;;;28.70;28.20;;;;;;6113274;29;20043;-77
2021/05/12 12:08:18;;;;;;;1.75;0.55;;;28.80;28.20;;;;;;6098168;29;20024;-78
2021/05/12 12:11:19;;;;;;;3.20;0.85;;;28.80;27.90;;;;;;6094135;29;20063;-79
2021/05/12 12:14:34;;;;;;;0.75;0.60;;;28.90;28.10;;;;;;6111734;29;20459;-78
2021/05/12 12:17:35;;;;;;;1.50;0.63;;;28.80;28.00;;;;;;6096269;29;20042;-77
2021/05/12 12:20:37;;;;;;;1.05;0.50;;;28.50;28.30;;;;;;6100093;29;20091;-77
2021/05/12 12:23:40;;;;;;;6.82;0.70;;;28.20;28.60;;;;;;6115681;29;20028;-78
2021/05/12 12:26:46;;;;;;;3.30;0.80;;;27.80;28.70;;;;;;6114685;29;20031;-78
2021/05/12 12:29:52;;;;;;;2.53;0.70;;;27.40;28.80;;;;;;6097654;29;20447;-78
2021/05/12 12:32:53;;;;;;;1.25;0.60;;;27.20;28.90;;;;;;6097191;29;20179;-77
2021/05/12 12:36:10;;;;;;;1.38;0.52;;;27.20;28.80;;;;;;6095413;29;20398;-77
2021/05/12 12:39:11;;;;;;;0.63;0.55;;;27.20;28.20;;;;;;6096706;29;20032;-78
2021/05/12 12:42:16;;;;;;;1.83;0.60;;;27.30;28.20;;;;;;6099324;29;20039;-77
2021/05/12 12:45:31;;;;;;;3.10;0.73;;;27.10;28.60;;;;;;6101014;29;20027;-78
2021/05/12 12:48:32;;;;;;;0.73;0.60;;;27.00;28.80;;;;;;6100020;29;20038;-77
2021/05/12 12:51:44;;;;;;;2.97;0.57;;;27.00;29.20;;;;;;6096697;29;20040;-77
2021/05/12 12:58:11;;;;;;;1.17;0.68;;;27.20;28.80;;;;;;6115306;29;20099;-78
2021/05/12 13:01:31;;;;;;;2.05;0.47;;;27.20;28.50;;;;;;6100503;29;20028;-78
2021/05/12 13:04:32;;;;;;;3.20;0.50;;;27.40;28.50;;;;;;6118460;29;20466;-78
2021/05/12 13:07:33;;;;;;;1.63;0.60;;;28.00;27.90;;;;;;6097561;29;20065;-78
2021/05/12 13:10:39;;;;;;;5.47;0.70;;;28.70;27.10;;;;;;6114561;29;20450;-78
2021/05/12 13:13:50;;;;;;;2.58;0.70;;;29.80;26.20;;;;;;6093375;29;20043;-78
2021/05/12 13:17:04;;;;;;;2.25;0.70;;;30.50;25.20;;;;;;6089288;29;20150;-79
2021/05/12 13:20:06;;;;;;;2.97;0.85;;;30.80;24.70;;;;;;6109256;29;20039;-77
2021/05/12 13:23:07;;;;;;;0.47;0.45;;;31.10;24.60;;;;;;6107535;29;20024;-78
2021/05/12 13:26:12;;;;;;;4.20;1.02;;;32.30;23.90;;;;;;6112323;29;20038;-79
2021/05/12 13:29:16;;;;;;;1.55;0.60;;;33.00;23.00;;;;;;6110776;29;20023;-77
2021/05/12 13:32:17;;;;;;;0.73;0.60;;;33.70;22.40;;;;;;6113306;29;20036;-78
2021/05/12 13:35:18;;;;;;;2.45;0.40;;;34.20;22.00;;;;;;6117110;29;20538;-77
2021/05/12 13:38:20;;;;;;;2.28;0.57;;;34.80;21.20;;;;;;6116182;29;20059;-78
2021/05/12 13:41:21;;;;;;;1.42;0.60;;;35.20;20.60;;;;;;6115674;29;20062;-78
2021/05/12 13:44:23;;;;;;;1.33;0.82;;;35.40;20.30;;;;;;6114532;29;20446;-78
2021/05/12 13:47:24;;;;;;;0.50;0.38;;;35.80;20.00;;;;;;6100586;29;20068;-78
2021/05/12 13:50:31;;;;;;;1.92;0.65;;;36.50;19.60;;;;;;6095901;29;20063;-79
2021/05/12 13:53:51;;;;;;;;;;;;;;;;;;;;;
2021/05/12 14:00:07;;;;;;;1.48;0.68;;;38.80;17.60;;;;;;6091176;29;20032;-79
2021/05/12 14:03:14;;;;;;;1.98;0.50;;;38.80;17.10;;;;;;6107873;29;20028;-78
2021/05/12 14:06:24;;;;;;;3.05;0.70;;;38.90;17.20;;;;;;6104891;29;20024;-78
2021/05/12 14:09:30;;;;;;;1.05;0.40;;;39.20;16.80;;;;;;6103886;29;20540;-79
2021/05/12 14:12:36;;;;;;;1.40;0.50;;;39.40;16.50;;;;;;6086239;29;20043;-78
2021/05/12 14:18:58;;;;;;;1.58;0.50;;;38.90;16.30;;;;;;6116268;29;20063;-79
2021/05/12 14:21:59;;;;;;;2.35;0.30;;;37.50;17.00;;;;;;6112888;29;20028;-79
2021/05/12 14:25:01;;;;;;;2.28;0.50;;;35.90;18.00;;;;;;6092753;29;20028;-77
2021/05/12 14:28:04;;;;;;;1.02;0.50;;;34.20;18.80;;;;;;6105636;29;20485;-76
2021/05/12 14:31:07;;;;;;;0.45;0.40;;;32.80;19.90;;;;;;6104111;29;20475;-78
2021/05/12 14:34:08;;;;;;;1.70;0.50;;;31.50;20.90;;;;;;6089392;29;20131;-76
2021/05/12 14:37:10;;;;;;;1.55;0.70;;;30.30;21.80;;;;;;6104395;29;20029;-78
2021/05/12 14:40:11;;;;;;;1.90;0.43;;;29.40;22.80;;;;;;6102556;29;20036;-78
2021/05/12 14:43:12;;;;;;;1.70;0.60;;;28.60;23.40;;;;;;6086862;29;20458;-80
2021/05/12 14:46:14;;;;;;;2.08;0.50;;;28.10;24.00;;;;;;6085715;29;20035;-78
2021/05/12 14:49:15;;;;;;;1.30;0.50;;;27.50;24.40;;;;;;6099931;29;20066;-78
2021/05/12 14:53:01;;;;;;;1.08;0.60;;;27.00;24.90;;;;;;6088439;29;20379;-78
2021/05/12 15:08:27;;;;;;;0.75;0.52;;;25.30;26.80;;;;;;6052119;29;20032;-77
2021/05/12 15:11:28;;;;;;;4.45;0.52;;;25.10;27.20;;;;;;6057329;29;20028;-78
2021/05/12 15:14:30;;;;;;;2.40;0.65;;;24.90;27.50;;;;;;6058452;29;20061;-78
2021/05/12 15:17:31;;;;;;;0.77;0.60;;;24.70;27.60;;;;;;6057080;29;20053;-78
2021/05/12 15:20:34;;;;;;;1.83;0.70;;;24.60;27.70;;;;;;6057121;29;20041;-79
2021/05/12 15:23:35;;;;;;;0.90;0.52;;;24.50;27.80;;;;;;6058527;29;20044;-77
2021/05/12 15:26:36;;;;;;;0.40;0.40;;;24.50;27.80;;;;;;6040799;29;20033;-78
2021/05/12 15:29:37;;;;;;;2.17;0.45;;;24.60;27.90;;;;;;6056710;29;20036;-77
2021/05/12 15:32:38;;;;;;;0.50;0.40;;;24.70;27.80;;;;;;6056844;29;20082;-77
2021/05/12 15:35:39;;;;;;;0.75;0.55;;;24.80;27.60;;;;;;6056880;29;20044;-77
2021/05/12 15:38:42;;;;;;;3.95;0.70;;;25.00;27.00;;;;;;6057314;29;20079;-78
2021/05/12 15:41:43;;;;;;;5.07;0.75;;;25.10;26.70;;;;;;6073851;29;20051;-78
2021/05/12 15:44:44;;;;;;;0.40;0.25;;;25.30;26.60;;;;;;6104353;29;20028;-77
2021/05/12 15:47:45;;;;;;;2.58;0.50;;;25.20;26.70;;;;;;6073375;29;20060;-78
2021/05/12 15:50:48;;;;;;;3.13;0.70;;;25.10;26.70;;;;;;6096436;29;20029;-77
2021/05/12 15:53:49;;;;;;;3.50;0.32;;;25.00;26.80;;;;;;6088153;29;20032;-77
2021/05/12 15:56:50;;;;;;;0.65;0.30;;;24.90;26.90;;;;;;6081163;29;20032;-77
2021/05/12 15:59:56;;;;;;;0.43;0.43;;;24.70;26.90;;;;;;6087952;29;20036;-77
2021/05/12 16:02:57;;;;;;;0.55;0.35;;;24.60;26.90;;;;;;6089074;29;20123;-78
2021/05/12 16:05:59;;;;;;;4.78;0.50;;;24.50;27.20;;;;;;6107019;29;20420;-77
2021/05/12 16:09:00;;;;;;;2.33;0.50;;;24.30;27.30;;;;;;6099437;29;20024;-78
2021/05/12 16:12:01;;;;;;;3.83;0.75;;;24.30;27.30;;;;;;6101995;29;20047;-78
2021/05/12 16:15:04;;;;;;;0.73;0.73;;;24.20;27.30;;;;;;6095362;29;20039;-77
2021/05/12 16:18:05;;;;;;;1.30;0.40;;;24.10;27.40;;;;;;6088557;29;20126;-78
2021/05/12 16:21:10;;;;;;;0.50;0.40;;;24.00;27.70;;;;;;6086023;29;20229;-78
2021/05/12 16:24:11;;;;;;;1.35;0.50;;;23.80;28.00;;;;;;6104649;29;20059;-79
2021/05/12 16:27:12;;;;;;;0.93;0.40;;;23.70;28.30;;;;;;6101330;29;20024;-78
2021/05/12 16:30:14;;;;;;;1.77;0.55;;;23.40;28.50;;;;;;6107311;29;20043;-78
2021/05/12 16:33:15;;;;;;;1.73;0.68;;;23.30;28.70;;;;;;6083431;29;20028;-78
2021/05/12 16:36:16;;;;;;;1.85;0.50;;;23.10;29.00;;;;;;6066992;29;20056;-78